createdAt,value
2022-12-13T00:01:57.756Z,-3.61
2022-12-13T00:04:25.852Z,-3.59
2022-12-13T00:06:54.237Z,-3.58
2022-12-13T00:09:23.678Z,-3.57
2022-12-13T00:11:56.581Z,-3.56
2022-12-13T00:14:24.714Z,-3.56
2022-12-13T00:16:52.875Z,-3.52
2022-12-13T00:19:21.944Z,-3.50
2022-12-13T00:21:51.468Z,-3.50
2022-12-13T00:24:21.128Z,-3.48
2022-12-13T00:26:54.652Z,-3.46
2022-12-13T00:29:22.663Z,-3.44
2022-12-13T00:31:59.325Z,-3.42
2022-12-13T00:34:23.504Z,-3.43
2022-12-13T00:36:53.422Z,-3.43
2022-12-13T00:39:21.036Z,-3.44
2022-12-13T00:41:49.611Z,-3.44
2022-12-13T00:44:19.935Z,-3.50
2022-12-13T00:46:50.581Z,-3.58
2022-12-13T00:49:19.437Z,-3.65
2022-12-13T00:51:48.846Z,-3.65
2022-12-13T00:54:16.963Z,-3.65
2022-12-13T00:56:44.517Z,-3.62
2022-12-13T00:59:15.387Z,-3.64
2022-12-13T01:01:43.399Z,-3.63
2022-12-13T01:04:11.578Z,-3.65
2022-12-13T01:06:46.014Z,-3.73
2022-12-13T01:09:21.494Z,-3.79
2022-12-13T01:11:50.559Z,-3.84
2022-12-13T01:14:19.085Z,-3.87
2022-12-13T01:16:47.246Z,-3.91
2022-12-13T01:19:15.183Z,-3.97
2022-12-13T01:21:43.064Z,-4.00
2022-12-13T01:24:10.856Z,-4.03
2022-12-13T01:26:38.772Z,-4.05
2022-12-13T01:29:06.690Z,-4.09
2022-12-13T01:31:37.029Z,-4.21
2022-12-13T01:34:06.613Z,-4.10
2022-12-13T01:36:38.200Z,-4.15
2022-12-13T01:39:14.420Z,-4.19
2022-12-13T01:41:34.170Z,-4.23
2022-12-13T01:44:04.993Z,-4.21
2022-12-13T01:46:35.221Z,-4.19
2022-12-13T01:49:20.002Z,-4.18
2022-12-13T01:51:47.569Z,-4.14
2022-12-13T01:54:21.304Z,-4.10
2022-12-13T01:56:52.957Z,-4.08
2022-12-13T01:59:23.178Z,-4.03
2022-12-13T02:01:52.253Z,-4.00
2022-12-13T02:04:28.344Z,-4.01
2022-12-13T02:06:57.579Z,-3.99
2022-12-13T02:09:26.196Z,-3.98
2022-12-13T02:11:54.294Z,-3.98
2022-12-13T02:14:22.074Z,-3.97
2022-12-13T02:17:13.129Z,-3.97
2022-12-13T02:20:01.508Z,-3.99
2022-12-13T02:22:49.165Z,-4.03
2022-12-13T02:26:09.532Z,-4.04
2022-12-13T02:29:29.975Z,-4.06
2022-12-13T02:32:01.737Z,-4.06
2022-12-13T02:34:36.876Z,-4.09
2022-12-13T02:37:26.026Z,-4.14
2022-12-13T02:40:17.498Z,-4.18
2022-12-13T02:43:23.843Z,-4.20
2022-12-13T02:45:58.013Z,-4.22
2022-12-13T02:48:30.077Z,-4.21
2022-12-13T02:51:00.838Z,-4.20
2022-12-13T02:53:29.847Z,-4.18
2022-12-13T02:55:59.716Z,-4.19
2022-12-13T02:58:33.216Z,-4.19
2022-12-13T03:01:28.175Z,-4.20
2022-12-13T03:04:08.602Z,-4.20
2022-12-13T03:07:10.395Z,-4.18
2022-12-13T03:09:52.197Z,-4.15
2022-12-13T03:12:43.622Z,-4.11
2022-12-13T03:15:18.945Z,-4.08
2022-12-13T03:17:59.352Z,-4.06
2022-12-13T03:20:29.197Z,-4.04
2022-12-13T03:22:58.435Z,-4.04
2022-12-13T03:25:32.047Z,-4.03
2022-12-13T03:28:02.204Z,-4.00
2022-12-13T03:30:32.085Z,-3.95
2022-12-13T03:33:00.821Z,-3.92
2022-12-13T03:35:34.171Z,-3.91
2022-12-13T03:38:01.353Z,-3.90
2022-12-13T03:40:30.717Z,-3.85
2022-12-13T03:42:58.650Z,-3.84
2022-12-13T03:45:26.311Z,-3.82
2022-12-13T03:47:54.175Z,-3.81
2022-12-13T03:50:26.481Z,-3.78
2022-12-13T03:52:59.472Z,-3.78
2022-12-13T03:55:28.425Z,-3.74
2022-12-13T03:57:56.376Z,-3.72
2022-12-13T04:00:25.704Z,-3.70
2022-12-13T04:02:53.449Z,-3.69
2022-12-13T04:05:21.057Z,-3.67
2022-12-13T04:07:48.874Z,-3.67
2022-12-13T04:10:26.276Z,-3.63
2022-12-13T04:13:11.555Z,-3.63
2022-12-13T04:15:39.924Z,-3.61
2022-12-13T04:18:07.519Z,-3.61
2022-12-13T04:20:35.551Z,-3.62
2022-12-13T04:23:10.086Z,-3.61
2022-12-13T04:25:35.995Z,-3.60
2022-12-13T04:28:03.742Z,-3.57
2022-12-13T04:30:31.430Z,-3.55
2022-12-13T04:32:59.488Z,-3.52
2022-12-13T04:35:27.289Z,-3.50
2022-12-13T04:37:56.422Z,-3.48
2022-12-13T04:40:24.244Z,-3.46
2022-12-13T04:42:54.580Z,-3.43
2022-12-13T04:45:22.722Z,-3.37
2022-12-13T04:47:50.516Z,-3.34
2022-12-13T04:50:18.153Z,-3.34
2022-12-13T04:52:45.986Z,-3.31
2022-12-13T04:55:14.090Z,-3.30
2022-12-13T04:57:42.161Z,-3.28
2022-12-13T05:00:15.185Z,-3.28
2022-12-13T05:02:42.961Z,-3.25
2022-12-13T05:05:11.786Z,-3.26
2022-12-13T05:07:42.396Z,-3.26
2022-12-13T05:10:11.085Z,-3.21
2022-12-13T05:12:38.976Z,-3.17
2022-12-13T05:15:07.435Z,-3.15
2022-12-13T05:17:35.119Z,-3.25
2022-12-13T05:20:03.579Z,-3.07
2022-12-13T05:22:31.229Z,-3.05
2022-12-13T05:25:02.149Z,-3.04
2022-12-13T05:27:30.046Z,-3.01
2022-12-13T05:30:03.345Z,-2.98
2022-12-13T05:32:30.243Z,-2.97
2022-12-13T05:37:44.439Z,-2.94
2022-12-13T05:40:12.396Z,-2.99
2022-12-13T05:42:41.093Z,-2.98
2022-12-13T05:45:10.542Z,-2.96
2022-12-13T05:47:38.578Z,-2.96
2022-12-13T05:50:07.411Z,-2.96
2022-12-13T05:52:35.597Z,-2.96
2022-12-13T05:55:05.463Z,-2.96
2022-12-13T05:57:34.132Z,-3.01
2022-12-13T06:00:06.908Z,-2.97
2022-12-13T06:02:41.262Z,-2.97
2022-12-13T06:05:11.975Z,-2.99
2022-12-13T06:07:53.649Z,-3.00
2022-12-13T06:10:21.976Z,-3.02
2022-12-13T06:12:49.425Z,-3.01
2022-12-13T06:15:22.672Z,-3.02
2022-12-13T06:17:47.174Z,-3.01
2022-12-13T06:20:24.415Z,-3.01
2022-12-13T06:22:47.059Z,-3.02
2022-12-13T06:25:31.014Z,-3.03
2022-12-13T06:27:45.379Z,-3.04
2022-12-13T06:30:15.286Z,-3.03
2022-12-13T06:32:44.126Z,-3.04
2022-12-13T06:35:27.982Z,-3.04
2022-12-13T06:37:43.895Z,-2.99
2022-12-13T06:40:12.643Z,-2.95
2022-12-13T06:42:40.397Z,-2.95
2022-12-13T06:45:11.834Z,-3.00
2022-12-13T06:47:41.808Z,-3.05
2022-12-13T06:50:10.202Z,-3.10
2022-12-13T06:52:46.685Z,-3.14
2022-12-13T06:55:15.037Z,-3.15
2022-12-13T06:57:44.516Z,-3.12
2022-12-13T07:00:14.193Z,-3.06
2022-12-13T07:02:44.545Z,-2.99
2022-12-13T07:05:13.027Z,-2.95
2022-12-13T07:07:44.790Z,-2.91
2022-12-13T07:10:22.007Z,-2.87
2022-12-13T07:12:47.502Z,-2.80
2022-12-13T07:15:15.932Z,-2.74
2022-12-13T07:17:44.441Z,-2.69
2022-12-13T07:20:15.092Z,-2.66
2022-12-13T07:22:55.093Z,-2.62
2022-12-13T07:25:26.710Z,-2.60
2022-12-13T07:28:02.075Z,-2.57
2022-12-13T07:30:33.029Z,-2.52
2022-12-13T07:33:02.834Z,-2.50
2022-12-13T07:35:31.946Z,-2.49
2022-12-13T07:38:01.283Z,-2.44
2022-12-13T07:40:29.215Z,-2.39
2022-12-13T07:42:57.188Z,-2.32
2022-12-13T07:45:26.935Z,-2.26
2022-12-13T07:47:54.779Z,-2.18
2022-12-13T07:50:24.796Z,-2.08
2022-12-13T07:52:53.700Z,-2.00
2022-12-13T07:55:23.234Z,-1.89
2022-12-13T07:57:53.114Z,-1.81
2022-12-13T08:00:22.001Z,-1.70
2022-12-13T08:02:50.086Z,-1.61
2022-12-13T08:05:26.981Z,-1.46
2022-12-13T08:07:48.400Z,-1.28
2022-12-13T08:10:16.419Z,-1.09
2022-12-13T08:12:45.335Z,-0.87
2022-12-13T08:15:14.290Z,-0.72
2022-12-13T08:17:42.208Z,-0.63
2022-12-13T08:20:11.152Z,-0.48
2022-12-13T08:22:39.689Z,-0.36
2022-12-13T08:25:08.019Z,-0.29
2022-12-13T08:27:36.191Z,-0.31
2022-12-13T08:30:07.117Z,-0.30
2022-12-13T08:32:34.720Z,-0.32
2022-12-13T08:35:03.677Z,-0.33
2022-12-13T08:37:31.674Z,-0.50
2022-12-13T08:39:59.685Z,-0.39
2022-12-13T08:42:27.592Z,-0.53
2022-12-13T08:44:55.649Z,-0.59
2022-12-13T08:47:26.536Z,-0.60
2022-12-13T08:50:01.562Z,-0.58
2022-12-13T08:52:39.504Z,-0.54
2022-12-13T08:55:05.939Z,-0.49
2022-12-13T08:57:36.884Z,-0.45
2022-12-13T09:00:14.785Z,-0.43
2022-12-13T09:02:42.915Z,-0.44
2022-12-13T09:05:12.498Z,-0.44
2022-12-13T09:07:40.624Z,-0.50
2022-12-13T09:10:27.053Z,-0.55
2022-12-13T09:12:44.960Z,-0.60
2022-12-13T09:15:22.544Z,-0.55
2022-12-13T09:17:42.879Z,-0.50
2022-12-13T09:20:29.211Z,-0.43
2022-12-13T09:22:45.448Z,-0.31
2022-12-13T09:25:15.437Z,-0.23
2022-12-13T09:27:44.972Z,-0.18
2022-12-13T09:30:13.648Z,-0.21
2022-12-13T09:32:44.084Z,-0.24
2022-12-13T09:35:14.885Z,-0.26
2022-12-13T09:37:45.912Z,-0.28
2022-12-13T09:40:25.443Z,-0.30
2022-12-13T09:43:08.294Z,-0.40
2022-12-13T09:45:31.907Z,-0.45
2022-12-13T09:47:54.135Z,-0.44
2022-12-13T09:50:37.076Z,-0.53
2022-12-13T09:53:05.732Z,-0.23
2022-12-13T09:55:42.177Z,-0.09
2022-12-13T09:58:24.540Z,-0.03
2022-12-13T10:00:55.549Z,0.06
2022-12-13T10:03:25.401Z,0.28
2022-12-13T10:06:10.563Z,0.41
2022-12-13T10:08:44.554Z,0.51
2022-12-13T10:11:16.430Z,0.65
2022-12-13T10:14:09.769Z,0.76
2022-12-13T10:16:48.995Z,0.77
2022-12-13T10:19:29.439Z,0.65
2022-12-13T10:21:54.048Z,0.54
2022-12-13T10:24:37.407Z,0.38
2022-12-13T10:27:15.226Z,0.28
2022-12-13T10:30:08.014Z,0.18
2022-12-13T10:32:56.303Z,0.19
2022-12-13T10:35:28.853Z,0.25
2022-12-13T10:38:13.113Z,0.32
2022-12-13T10:40:47.977Z,0.44
2022-12-13T10:43:22.872Z,0.55
2022-12-13T10:46:00.120Z,0.62
2022-12-13T10:48:43.080Z,0.69
2022-12-13T10:51:13.954Z,0.80
2022-12-13T10:53:56.007Z,0.95
2022-12-13T10:56:41.266Z,1.07
2022-12-13T10:59:29.529Z,1.17
2022-12-13T11:01:57.307Z,1.34
2022-12-13T11:04:34.318Z,1.55
2022-12-13T11:07:21.896Z,1.73
2022-12-13T11:09:52.846Z,1.72
2022-12-13T11:12:27.550Z,1.66
2022-12-13T11:15:04.038Z,1.45
2022-12-13T11:17:36.820Z,1.28
2022-12-13T11:20:25.347Z,1.14
2022-12-13T11:23:04.344Z,1.03
2022-12-13T11:25:43.567Z,0.95
2022-12-13T11:28:55.489Z,0.96
2022-12-13T11:31:59.271Z,0.90
2022-12-13T11:34:50.382Z,0.85
2022-12-13T11:37:37.612Z,0.69
2022-12-13T11:40:27.479Z,0.51
2022-12-13T11:43:26.981Z,0.32
2022-12-13T11:46:01.864Z,0.12
2022-12-13T11:48:50.261Z,0.10
2022-12-13T11:51:23.792Z,0.10
2022-12-13T11:54:03.079Z,0.14
2022-12-13T11:56:35.365Z,0.30
2022-12-13T11:59:30.661Z,0.37
2022-12-13T12:02:26.045Z,0.34
2022-12-13T12:05:00.444Z,0.31
2022-12-13T12:07:34.958Z,0.29
2022-12-13T12:10:29.759Z,0.21
2022-12-13T12:13:05.568Z,0.24
2022-12-13T12:15:41.849Z,0.18
2022-12-13T12:18:16.014Z,0.14
2022-12-13T12:21:14.325Z,0.06
2022-12-13T12:24:03.391Z,0.03
2022-12-13T12:26:58.059Z,-0.08
2022-12-13T12:29:51.152Z,-0.13
2022-12-13T12:32:28.935Z,-0.23
2022-12-13T12:35:31.177Z,-0.35
2022-12-13T12:38:40.642Z,-0.51
2022-12-13T12:42:01.507Z,-0.61
2022-12-13T12:44:52.424Z,-0.75
2022-12-13T12:48:42.038Z,-0.82
2022-12-13T12:50:55.111Z,-0.88
2022-12-13T12:53:42.290Z,-0.91
2022-12-13T12:56:45.786Z,-0.94
2022-12-13T13:00:07.184Z,-1.02
2022-12-13T13:02:55.835Z,-1.07
2022-12-13T13:05:44.561Z,-1.07
2022-12-13T13:08:25.113Z,-1.11
2022-12-13T13:11:01.905Z,-1.18
2022-12-13T13:13:49.943Z,-1.24
2022-12-13T13:16:41.337Z,-1.24
2022-12-13T13:19:25.946Z,-1.25
2022-12-13T13:22:01.271Z,-1.26
2022-12-13T13:24:32.847Z,-1.26
2022-12-13T13:27:18.199Z,-1.27
2022-12-13T13:29:47.018Z,-1.31
2022-12-13T13:32:28.425Z,-1.36
2022-12-13T13:35:37.289Z,-1.36
2022-12-13T13:38:27.346Z,-1.40
2022-12-13T13:40:55.267Z,-1.48
2022-12-13T13:43:32.990Z,-1.49
2022-12-13T13:46:11.748Z,-1.50
2022-12-13T13:49:08.897Z,-1.48
2022-12-13T13:55:17.275Z,-1.55
2022-12-13T13:58:09.885Z,-1.54
2022-12-13T14:01:15.851Z,-1.55
2022-12-13T14:04:23.284Z,-1.65
2022-12-13T14:07:31.634Z,-1.70
2022-12-13T14:10:20.212Z,-1.72
2022-12-13T14:13:05.660Z,-1.71
2022-12-13T14:16:12.191Z,-1.73
2022-12-13T14:19:25.947Z,-1.77
2022-12-13T14:22:23.438Z,-1.80
2022-12-13T14:25:09.360Z,-1.78
2022-12-13T14:27:57.809Z,-1.76
2022-12-13T14:30:28.695Z,-1.72
2022-12-13T14:32:57.240Z,-1.71
2022-12-13T14:35:32.004Z,-1.67
2022-12-13T14:38:08.681Z,-1.66
2022-12-13T14:40:43.439Z,-1.65
2022-12-13T14:43:33.930Z,-1.64
2022-12-13T14:46:08.048Z,-1.64
2022-12-13T14:48:46.688Z,-1.62
2022-12-13T14:51:34.970Z,-1.59
2022-12-13T14:54:06.340Z,-1.57
2022-12-13T14:56:35.022Z,-1.59
2022-12-13T14:59:09.428Z,-1.57
2022-12-13T15:01:38.868Z,-1.56
2022-12-13T15:04:24.840Z,-1.56
2022-12-13T15:07:10.929Z,-1.54
2022-12-13T15:09:42.634Z,-1.55
2022-12-13T15:12:24.430Z,-1.57
2022-12-13T15:14:53.147Z,-1.57
2022-12-13T15:17:37.260Z,-1.59
2022-12-13T15:20:30.361Z,-1.64
2022-12-13T15:23:05.424Z,-1.71
2022-12-13T15:25:36.249Z,-1.80
2022-12-13T15:28:06.575Z,-1.84
2022-12-13T15:30:35.996Z,-1.87
2022-12-13T15:33:17.943Z,-1.91
2022-12-13T15:35:48.595Z,-1.95
2022-12-13T15:38:29.129Z,-2.00
2022-12-13T15:40:50.400Z,-2.04
2022-12-13T15:43:22.881Z,-2.09
2022-12-13T15:45:53.037Z,-2.11
2022-12-13T15:48:34.581Z,-2.14
2022-12-13T15:51:29.627Z,-2.18
2022-12-13T15:54:12.719Z,-2.23
2022-12-13T15:57:04.682Z,-2.28
2022-12-13T15:59:35.378Z,-2.31
2022-12-13T16:02:06.159Z,-2.47
2022-12-13T16:04:34.059Z,-2.35
2022-12-13T16:07:02.152Z,-2.39
2022-12-13T16:09:34.544Z,-2.41
2022-12-13T16:12:06.533Z,-2.41
2022-12-13T16:14:49.773Z,-2.46
2022-12-13T16:17:26.883Z,-2.48
2022-12-13T16:20:06.018Z,-2.47
2022-12-13T16:22:30.277Z,-2.46
2022-12-13T16:25:12.941Z,-2.48
2022-12-13T16:27:49.213Z,-2.52
2022-12-13T16:30:32.322Z,-2.53
2022-12-13T16:33:30.431Z,-2.55
2022-12-13T16:35:48.884Z,-2.59
2022-12-13T16:38:35.711Z,-2.66
2022-12-13T16:41:11.981Z,-2.70
2022-12-13T16:44:07.970Z,-2.74
2022-12-13T16:47:14.155Z,-2.76
2022-12-13T16:49:30.106Z,-2.78
2022-12-13T16:52:03.019Z,-2.81
2022-12-13T16:54:41.309Z,-3.01
2022-12-13T16:57:11.826Z,-2.81
2022-12-13T16:59:40.241Z,-2.83
2022-12-13T17:02:18.264Z,-2.83
2022-12-13T17:04:52.319Z,-2.82
2022-12-13T17:07:32.853Z,-2.83
2022-12-13T17:10:07.321Z,-2.83
2022-12-13T17:12:42.675Z,-2.85
2022-12-13T17:15:12.583Z,-2.86
2022-12-13T17:17:44.093Z,-2.90
2022-12-13T17:20:17.829Z,-2.89
2022-12-13T17:22:47.055Z,-2.89
2022-12-13T17:25:17.177Z,-2.91
2022-12-13T17:27:45.418Z,-2.93
2022-12-13T17:30:17.152Z,-2.94
2022-12-13T17:32:45.423Z,-2.96
2022-12-13T17:35:18.154Z,-3.00
2022-12-13T17:37:43.804Z,-3.01
2022-12-13T17:40:11.871Z,-3.04
2022-12-13T17:42:40.155Z,-3.08
2022-12-13T17:45:08.652Z,-3.10
2022-12-13T17:47:45.701Z,-3.15
2022-12-13T17:50:13.811Z,-3.15
2022-12-13T17:52:42.245Z,-3.17
2022-12-13T17:55:14.927Z,-3.21
2022-12-13T17:57:41.297Z,-3.25
2022-12-13T18:00:11.014Z,-3.29
2022-12-13T18:02:55.466Z,-3.30
2022-12-13T18:05:18.159Z,-3.32
2022-12-13T18:07:50.775Z,-3.36
2022-12-13T18:10:15.835Z,-3.40
2022-12-13T18:12:43.498Z,-3.43
2022-12-13T18:15:11.725Z,-3.46
2022-12-13T18:18:09.521Z,-3.51
2022-12-13T18:20:09.612Z,-3.56
2022-12-13T18:22:43.094Z,-3.60
2022-12-13T18:25:11.319Z,-3.60
2022-12-13T18:27:40.912Z,-3.61
2022-12-13T18:30:10.271Z,-3.63
2022-12-13T18:32:41.479Z,-3.65
2022-12-13T18:35:09.805Z,-3.70
2022-12-13T18:37:39.883Z,-3.74
2022-12-13T18:40:09.482Z,-3.76
2022-12-13T18:42:38.250Z,-3.80
2022-12-13T18:45:07.080Z,-3.84
2022-12-13T18:47:34.968Z,-3.90
2022-12-13T18:50:03.246Z,-3.96
2022-12-13T18:52:31.202Z,-4.01
2022-12-13T18:54:59.139Z,-4.00
2022-12-13T18:57:26.800Z,-4.05
2022-12-13T18:59:55.047Z,-4.10
2022-12-13T19:02:22.772Z,-4.15
2022-12-13T19:04:55.261Z,-4.19
2022-12-13T19:07:20.779Z,-4.21
2022-12-13T19:09:54.411Z,-4.27
2022-12-13T19:12:18.684Z,-4.34
2022-12-13T19:14:54.754Z,-4.42
2022-12-13T19:17:17.538Z,-4.49
2022-12-13T19:19:48.304Z,-4.53
2022-12-13T19:22:17.549Z,-4.55
2022-12-13T19:24:47.385Z,-4.58
2022-12-13T19:27:16.502Z,-4.62
2022-12-13T19:29:45.687Z,-4.65
2022-12-13T19:32:14.119Z,-4.66
2022-12-13T19:34:42.133Z,-4.67
2022-12-13T19:37:10.934Z,-4.68
2022-12-13T19:39:41.944Z,-4.71
2022-12-13T19:42:11.806Z,-4.73
2022-12-13T19:44:40.170Z,-4.78
2022-12-13T19:47:07.822Z,-4.81
2022-12-13T19:49:38.721Z,-4.83
2022-12-13T19:52:08.113Z,-4.86
2022-12-13T19:54:36.088Z,-4.91
2022-12-13T19:57:07.444Z,-4.94
2022-12-13T19:59:35.505Z,-5.00
2022-12-13T20:02:05.235Z,-5.05
2022-12-13T20:04:33.702Z,-5.08
2022-12-13T20:07:02.511Z,-5.11
2022-12-13T20:09:30.453Z,-5.13
2022-12-13T20:11:58.782Z,-5.18
2022-12-13T20:14:27.119Z,-5.23
2022-12-13T20:16:54.883Z,-5.29
2022-12-13T20:19:24.407Z,-5.34
2022-12-13T20:21:56.949Z,-5.38
2022-12-13T20:24:22.441Z,-5.43
2022-12-13T20:26:51.187Z,-5.45
2022-12-13T20:29:19.548Z,-5.47
2022-12-13T20:31:51.590Z,-5.50
2022-12-13T20:34:20.431Z,-5.51
2022-12-13T20:36:50.134Z,-5.54
2022-12-13T20:39:17.867Z,-5.57
2022-12-13T20:41:46.796Z,-5.61
2022-12-13T20:44:15.054Z,-5.62
2022-12-13T20:46:43.751Z,-5.66
2022-12-13T20:49:14.530Z,-5.74
2022-12-13T20:51:42.421Z,-5.79
2022-12-13T20:54:10.611Z,-5.82
2022-12-13T20:56:40.417Z,-5.85
2022-12-13T20:59:12.921Z,-5.88
2022-12-13T21:01:41.894Z,-5.92
2022-12-13T21:04:12.123Z,-5.96
2022-12-13T21:06:41.872Z,-5.99
2022-12-13T21:09:11.411Z,-5.97
2022-12-13T21:11:46.547Z,-5.99
2022-12-13T21:14:25.456Z,-6.01
2022-12-13T21:16:59.470Z,-6.05
2022-12-13T21:19:38.919Z,-6.05
2022-12-13T21:22:02.098Z,-6.07
2022-12-13T21:24:30.053Z,-6.08
2022-12-13T21:27:00.210Z,-6.11
2022-12-13T21:29:28.751Z,-6.13
2022-12-13T21:31:57.359Z,-6.13
2022-12-13T21:34:26.060Z,-6.15
2022-12-13T21:36:54.625Z,-6.16
2022-12-13T21:39:27.057Z,-6.17
2022-12-13T21:41:55.368Z,-6.18
2022-12-13T21:44:26.108Z,-6.21
2022-12-13T21:49:24.618Z,-6.22
2022-12-13T21:51:52.793Z,-6.23
2022-12-13T21:54:21.712Z,-6.22
2022-12-13T21:57:08.496Z,-6.20
2022-12-13T21:59:36.734Z,-6.18
2022-12-13T22:02:15.618Z,-6.18
2022-12-13T22:04:56.642Z,-6.19
2022-12-13T22:07:30.798Z,-6.18
2022-12-13T22:10:00.810Z,-6.31
2022-12-13T22:12:45.819Z,-6.25
2022-12-13T22:15:16.274Z,-6.26
2022-12-13T22:17:43.860Z,-6.28
2022-12-13T22:20:14.870Z,-6.30
2022-12-13T22:22:45.470Z,-6.32
2022-12-13T22:25:13.498Z,-6.34
2022-12-13T22:27:41.796Z,-6.36
2022-12-13T22:30:11.984Z,-6.39
2022-12-13T22:32:40.611Z,-6.40
2022-12-13T22:35:09.304Z,-6.43
2022-12-13T22:37:39.163Z,-6.43
2022-12-13T22:40:08.547Z,-6.44
2022-12-13T22:42:36.757Z,-6.45
2022-12-13T22:45:05.639Z,-6.47
2022-12-13T22:47:34.516Z,-6.52
2022-12-13T22:50:02.851Z,-6.56
2022-12-13T22:52:33.973Z,-6.59
2022-12-13T22:55:00.334Z,-6.63
2022-12-13T22:57:27.910Z,-6.64
2022-12-13T22:59:55.710Z,-6.68
2022-12-13T23:02:23.444Z,-6.70
2022-12-13T23:04:51.280Z,-6.76
2022-12-13T23:07:18.972Z,-6.76
2022-12-13T23:09:46.505Z,-6.78
2022-12-13T23:12:32.528Z,-6.78
2022-12-13T23:15:00.378Z,-6.81
2022-12-13T23:17:28.108Z,-6.81
2022-12-13T23:19:56.110Z,-6.83
2022-12-13T23:22:25.919Z,-6.81
2022-12-13T23:24:53.758Z,-6.89
2022-12-13T23:27:23.504Z,-6.81
2022-12-13T23:29:51.512Z,-6.82
2022-12-13T23:32:19.224Z,-6.82
2022-12-13T23:34:47.030Z,-6.83
2022-12-13T23:37:16.507Z,-6.87
2022-12-13T23:39:44.207Z,-6.89
2022-12-13T23:42:12.073Z,-6.92
2022-12-13T23:44:39.862Z,-6.94
2022-12-13T23:47:07.736Z,-6.96
2022-12-13T23:49:35.624Z,-6.98
2022-12-13T23:52:03.466Z,-7.00
2022-12-13T23:54:31.254Z,-7.11
2022-12-13T23:56:59.211Z,-7.04
2022-12-13T23:59:27.685Z,-7.06
